sensor_id;sensor_type;location;lat;lon;timestamp;P1;durP1;ratioP1;P2;durP2;ratioP2
70199;SDS011;57587;55.688;37.600;2023-02-19T00:01:27;18.13;;;8.30;;
70199;SDS011;57587;55.688;37.600;2023-02-19T00:04:03;20.35;;;8.35;;
70199;SDS011;57587;55.688;37.600;2023-02-19T00:06:33;15.97;;;7.77;;
70199;SDS011;57587;55.688;37.600;2023-02-19T00:09:02;19.65;;;9.15;;
70199;SDS011;57587;55.688;37.600;2023-02-19T00:11:30;18.98;;;8.20;;
70199;SDS011;57587;55.688;37.600;2023-02-19T00:13:59;21.05;;;9.07;;
70199;SDS011;57587;55.688;37.600;2023-02-19T00:16:35;19.08;;;9.13;;
70199;SDS011;57587;55.688;37.600;2023-02-19T00:19:05;19.57;;;8.97;;
70199;SDS011;57587;55.688;37.600;2023-02-19T00:21:34;11.85;;;6.63;;
70199;SDS011;57587;55.688;37.600;2023-02-19T00:24:02;20.27;;;9.18;;
70199;SDS011;57587;55.688;37.600;2023-02-19T00:26:31;17.33;;;7.68;;
70199;SDS011;57587;55.688;37.600;2023-02-19T00:28:59;16.13;;;8.05;;
70199;SDS011;57587;55.688;37.600;2023-02-19T00:31:30;14.77;;;6.30;;
70199;SDS011;57587;55.688;37.600;2023-02-19T00:34:00;16.17;;;7.50;;
70199;SDS011;57587;55.688;37.600;2023-02-19T00:36:30;17.23;;;7.40;;
70199;SDS011;57587;55.688;37.600;2023-02-19T00:38:58;15.25;;;7.47;;
70199;SDS011;57587;55.688;37.600;2023-02-19T00:41:26;14.60;;;7.38;;
70199;SDS011;57587;55.688;37.600;2023-02-19T00:46:29;16.25;;;8.57;;
70199;SDS011;57587;55.688;37.600;2023-02-19T00:48:59;21.88;;;9.55;;
70199;SDS011;57587;55.688;37.600;2023-02-19T00:51:28;16.83;;;8.73;;
70199;SDS011;57587;55.688;37.600;2023-02-19T00:53:57;20.77;;;9.68;;
70199;SDS011;57587;55.688;37.600;2023-02-19T00:56:25;18.80;;;8.97;;
70199;SDS011;57587;55.688;37.600;2023-02-19T00:58:53;18.17;;;9.00;;
70199;SDS011;57587;55.688;37.600;2023-02-19T01:01:21;21.05;;;10.18;;
70199;SDS011;57587;55.688;37.600;2023-02-19T01:03:49;21.58;;;9.00;;
70199;SDS011;57587;55.688;37.600;2023-02-19T01:06:17;18.35;;;8.85;;
70199;SDS011;57587;55.688;37.600;2023-02-19T01:08:46;21.10;;;9.30;;
70199;SDS011;57587;55.688;37.600;2023-02-19T01:11:14;21.75;;;10.23;;
70199;SDS011;57587;55.688;37.600;2023-02-19T01:13:42;14.20;;;7.50;;
70199;SDS011;57587;55.688;37.600;2023-02-19T01:16:12;19.88;;;8.68;;
70199;SDS011;57587;55.688;37.600;2023-02-19T01:18:41;20.80;;;9.27;;
70199;SDS011;57587;55.688;37.600;2023-02-19T01:21:13;23.40;;;9.73;;
70199;SDS011;57587;55.688;37.600;2023-02-19T01:23:41;14.88;;;7.93;;
70199;SDS011;57587;55.688;37.600;2023-02-19T01:26:13;19.52;;;8.23;;
70199;SDS011;57587;55.688;37.600;2023-02-19T01:28:43;19.13;;;9.32;;
70199;SDS011;57587;55.688;37.600;2023-02-19T01:31:12;26.58;;;9.85;;
70199;SDS011;57587;55.688;37.600;2023-02-19T01:33:45;15.83;;;8.17;;
70199;SDS011;57587;55.688;37.600;2023-02-19T01:36:14;17.20;;;7.28;;
70199;SDS011;57587;55.688;37.600;2023-02-19T01:38:42;14.43;;;7.65;;
70199;SDS011;57587;55.688;37.600;2023-02-19T01:41:11;20.05;;;9.35;;
70199;SDS011;57587;55.688;37.600;2023-02-19T01:46:38;19.03;;;8.27;;
70199;SDS011;57587;55.688;37.600;2023-02-19T01:51:47;18.13;;;9.20;;
70199;SDS011;57587;55.688;37.600;2023-02-19T01:54:20;18.35;;;7.70;;
70199;SDS011;57587;55.688;37.600;2023-02-19T01:56:50;19.27;;;8.57;;
70199;SDS011;57587;55.688;37.600;2023-02-19T01:59:18;18.63;;;9.93;;
70199;SDS011;57587;55.688;37.600;2023-02-19T02:01:45;17.38;;;8.07;;
70199;SDS011;57587;55.688;37.600;2023-02-19T02:04:13;24.27;;;9.95;;
70199;SDS011;57587;55.688;37.600;2023-02-19T02:06:51;21.02;;;9.43;;
70199;SDS011;57587;55.688;37.600;2023-02-19T02:09:20;13.48;;;6.72;;
70199;SDS011;57587;55.688;37.600;2023-02-19T02:12:09;19.43;;;8.53;;
70199;SDS011;57587;55.688;37.600;2023-02-19T02:14:39;19.52;;;9.18;;
70199;SDS011;57587;55.688;37.600;2023-02-19T02:17:30;14.65;;;6.72;;
70199;SDS011;57587;55.688;37.600;2023-02-19T02:23:02;15.75;;;7.95;;
70199;SDS011;57587;55.688;37.600;2023-02-19T02:31:11;18.85;;;7.68;;
70199;SDS011;57587;55.688;37.600;2023-02-19T02:33:42;15.18;;;7.50;;
70199;SDS011;57587;55.688;37.600;2023-02-19T02:36:20;10.63;;;5.95;;
70199;SDS011;57587;55.688;37.600;2023-02-19T02:38:50;19.07;;;9.43;;
70199;SDS011;57587;55.688;37.600;2023-02-19T02:41:21;16.77;;;8.88;;
70199;SDS011;57587;55.688;37.600;2023-02-19T02:43:49;17.20;;;8.15;;
70199;SDS011;57587;55.688;37.600;2023-02-19T02:46:23;17.33;;;7.95;;
70199;SDS011;57587;55.688;37.600;2023-02-19T02:49:04;12.43;;;6.97;;
70199;SDS011;57587;55.688;37.600;2023-02-19T02:51:45;18.07;;;6.73;;
70199;SDS011;57587;55.688;37.600;2023-02-19T02:54:25;15.52;;;7.60;;
70199;SDS011;57587;55.688;37.600;2023-02-19T02:57:15;12.90;;;6.95;;
70199;SDS011;57587;55.688;37.600;2023-02-19T02:59:51;18.35;;;8.10;;
70199;SDS011;57587;55.688;37.600;2023-02-19T03:02:25;20.58;;;9.00;;
70199;SDS011;57587;55.688;37.600;2023-02-19T03:08:14;14.00;;;8.00;;
70199;SDS011;57587;55.688;37.600;2023-02-19T03:13:26;17.30;;;8.57;;
70199;SDS011;57587;55.688;37.600;2023-02-19T03:16:18;19.08;;;8.25;;
70199;SDS011;57587;55.688;37.600;2023-02-19T03:19:09;12.67;;;6.93;;
70199;SDS011;57587;55.688;37.600;2023-02-19T03:24:23;16.40;;;7.47;;
70199;SDS011;57587;55.688;37.600;2023-02-19T03:27:15;15.52;;;7.70;;
70199;SDS011;57587;55.688;37.600;2023-02-19T03:29:49;15.98;;;7.75;;
70199;SDS011;57587;55.688;37.600;2023-02-19T03:32:25;13.53;;;6.93;;
70199;SDS011;57587;55.688;37.600;2023-02-19T03:35:20;15.35;;;6.68;;
70199;SDS011;57587;55.688;37.600;2023-02-19T03:38:36;14.07;;;6.78;;
70199;SDS011;57587;55.688;37.600;2023-02-19T03:40:53;13.30;;;7.35;;
70199;SDS011;57587;55.688;37.600;2023-02-19T03:43:49;13.10;;;6.60;;
70199;SDS011;57587;55.688;37.600;2023-02-19T03:46:24;17.00;;;8.80;;
70199;SDS011;57587;55.688;37.600;2023-02-19T03:48:57;13.73;;;7.35;;
70199;SDS011;57587;55.688;37.600;2023-02-19T04:04:40;14.55;;;6.85;;
70199;SDS011;57587;55.688;37.600;2023-02-19T04:07:11;15.75;;;8.02;;
70199;SDS011;57587;55.688;37.600;2023-02-19T04:09:43;12.02;;;5.97;;
70199;SDS011;57587;55.688;37.600;2023-02-19T04:12:17;19.83;;;8.20;;
70199;SDS011;57587;55.688;37.600;2023-02-19T04:18:14;14.15;;;6.88;;
70199;SDS011;57587;55.688;37.600;2023-02-19T04:20:18;13.40;;;6.50;;
70199;SDS011;57587;55.688;37.600;2023-02-19T04:22:48;17.38;;;7.78;;
70199;SDS011;57587;55.688;37.600;2023-02-19T04:25:15;12.97;;;6.93;;
70199;SDS011;57587;55.688;37.600;2023-02-19T04:27:43;15.20;;;7.00;;
70199;SDS011;57587;55.688;37.600;2023-02-19T04:30:12;19.20;;;9.00;;
70199;SDS011;57587;55.688;37.600;2023-02-19T04:32:39;14.77;;;6.65;;
70199;SDS011;57587;55.688;37.600;2023-02-19T04:35:06;19.08;;;8.95;;
70199;SDS011;57587;55.688;37.600;2023-02-19T04:37:34;15.83;;;7.47;;
70199;SDS011;57587;55.688;37.600;2023-02-19T04:40:14;16.75;;;7.82;;
70199;SDS011;57587;55.688;37.600;2023-02-19T04:42:41;11.25;;;6.20;;
70199;SDS011;57587;55.688;37.600;2023-02-19T04:45:08;16.48;;;7.53;;
70199;SDS011;57587;55.688;37.600;2023-02-19T04:47:35;16.55;;;7.75;;
70199;SDS011;57587;55.688;37.600;2023-02-19T04:50:05;13.50;;;6.80;;
70199;SDS011;57587;55.688;37.600;2023-02-19T04:52:49;16.30;;;7.55;;
70199;SDS011;57587;55.688;37.600;2023-02-19T04:55:16;17.23;;;8.98;;
70199;SDS011;57587;55.688;37.600;2023-02-19T04:57:44;17.17;;;7.90;;
70199;SDS011;57587;55.688;37.600;2023-02-19T05:00:11;10.38;;;5.80;;
70199;SDS011;57587;55.688;37.600;2023-02-19T05:02:39;18.33;;;8.13;;
70199;SDS011;57587;55.688;37.600;2023-02-19T05:05:06;16.42;;;8.15;;
70199;SDS011;57587;55.688;37.600;2023-02-19T05:07:33;12.88;;;6.72;;
70199;SDS011;57587;55.688;37.600;2023-02-19T05:10:00;18.83;;;7.55;;
70199;SDS011;57587;55.688;37.600;2023-02-19T05:12:29;14.25;;;8.00;;
70199;SDS011;57587;55.688;37.600;2023-02-19T05:14:57;11.60;;;6.17;;
70199;SDS011;57587;55.688;37.600;2023-02-19T05:17:24;10.07;;;4.60;;
70199;SDS011;57587;55.688;37.600;2023-02-19T05:19:51;14.07;;;7.07;;
70199;SDS011;57587;55.688;37.600;2023-02-19T05:22:18;15.70;;;7.07;;
70199;SDS011;57587;55.688;37.600;2023-02-19T05:24:46;15.30;;;7.20;;
70199;SDS011;57587;55.688;37.600;2023-02-19T05:27:24;15.87;;;7.87;;
70199;SDS011;57587;55.688;37.600;2023-02-19T05:29:51;12.02;;;6.70;;
70199;SDS011;57587;55.688;37.600;2023-02-19T05:32:18;16.17;;;7.75;;
70199;SDS011;57587;55.688;37.600;2023-02-19T05:34:45;18.88;;;8.45;;
70199;SDS011;57587;55.688;37.600;2023-02-19T05:37:12;15.07;;;8.15;;
70199;SDS011;57587;55.688;37.600;2023-02-19T05:39:39;18.93;;;7.97;;
70199;SDS011;57587;55.688;37.600;2023-02-19T05:42:06;9.95;;;5.43;;
70199;SDS011;57587;55.688;37.600;2023-02-19T05:44:33;11.98;;;6.40;;
70199;SDS011;57587;55.688;37.600;2023-02-19T05:47:00;14.52;;;6.53;;
70199;SDS011;57587;55.688;37.600;2023-02-19T05:49:27;12.50;;;7.25;;
70199;SDS011;57587;55.688;37.600;2023-02-19T05:51:54;13.63;;;6.73;;
70199;SDS011;57587;55.688;37.600;2023-02-19T05:54:21;14.88;;;8.13;;
70199;SDS011;57587;55.688;37.600;2023-02-19T05:56:48;15.00;;;7.85;;
70199;SDS011;57587;55.688;37.600;2023-02-19T05:59:16;18.10;;;7.47;;
70199;SDS011;57587;55.688;37.600;2023-02-19T06:01:48;13.38;;;7.97;;
70199;SDS011;57587;55.688;37.600;2023-02-19T06:04:17;13.67;;;7.27;;
70199;SDS011;57587;55.688;37.600;2023-02-19T06:06:46;15.18;;;7.13;;
70199;SDS011;57587;55.688;37.600;2023-02-19T06:09:13;16.08;;;6.75;;
70199;SDS011;57587;55.688;37.600;2023-02-19T06:11:40;11.38;;;6.88;;
70199;SDS011;57587;55.688;37.600;2023-02-19T06:14:10;15.18;;;7.18;;
70199;SDS011;57587;55.688;37.600;2023-02-19T06:16:38;11.03;;;5.70;;
70199;SDS011;57587;55.688;37.600;2023-02-19T06:19:05;19.70;;;8.27;;
70199;SDS011;57587;55.688;37.600;2023-02-19T06:21:32;14.02;;;7.30;;
70199;SDS011;57587;55.688;37.600;2023-02-19T06:24:03;14.95;;;7.82;;
70199;SDS011;57587;55.688;37.600;2023-02-19T06:26:34;13.45;;;6.88;;
70199;SDS011;57587;55.688;37.600;2023-02-19T06:29:01;14.40;;;7.20;;
70199;SDS011;57587;55.688;37.600;2023-02-19T06:31:28;12.13;;;6.97;;
70199;SDS011;57587;55.688;37.600;2023-02-19T06:33:55;13.77;;;8.25;;
70199;SDS011;57587;55.688;37.600;2023-02-19T06:36:22;12.57;;;7.00;;
70199;SDS011;57587;55.688;37.600;2023-02-19T06:38:50;11.98;;;7.43;;
70199;SDS011;57587;55.688;37.600;2023-02-19T06:41:17;15.93;;;7.60;;
70199;SDS011;57587;55.688;37.600;2023-02-19T06:43:45;12.32;;;6.28;;
70199;SDS011;57587;55.688;37.600;2023-02-19T06:46:12;9.98;;;5.45;;
70199;SDS011;57587;55.688;37.600;2023-02-19T06:48:40;15.18;;;7.00;;
70199;SDS011;57587;55.688;37.600;2023-02-19T06:51:16;15.13;;;7.22;;
70199;SDS011;57587;55.688;37.600;2023-02-19T06:53:45;11.93;;;6.53;;
70199;SDS011;57587;55.688;37.600;2023-02-19T06:59:19;13.38;;;6.60;;
70199;SDS011;57587;55.688;37.600;2023-02-19T07:02:22;12.38;;;6.25;;
70199;SDS011;57587;55.688;37.600;2023-02-19T07:05:24;14.55;;;7.95;;
70199;SDS011;57587;55.688;37.600;2023-02-19T07:08:08;11.87;;;7.40;;
70199;SDS011;57587;55.688;37.600;2023-02-19T07:10:40;15.50;;;8.40;;
70199;SDS011;57587;55.688;37.600;2023-02-19T07:13:22;17.02;;;9.23;;
70199;SDS011;57587;55.688;37.600;2023-02-19T07:15:59;14.50;;;8.15;;
70199;SDS011;57587;55.688;37.600;2023-02-19T07:18:39;14.73;;;7.85;;
70199;SDS011;57587;55.688;37.600;2023-02-19T07:21:28;12.30;;;6.57;;
70199;SDS011;57587;55.688;37.600;2023-02-19T07:24:18;8.60;;;5.50;;
70199;SDS011;57587;55.688;37.600;2023-02-19T07:26:50;14.32;;;7.63;;
70199;SDS011;57587;55.688;37.600;2023-02-19T07:29:26;12.45;;;6.97;;
70199;SDS011;57587;55.688;37.600;2023-02-19T07:31:56;10.32;;;5.22;;
70199;SDS011;57587;55.688;37.600;2023-02-19T07:34:31;12.23;;;7.00;;
70199;SDS011;57587;55.688;37.600;2023-02-19T07:36:58;11.80;;;6.10;;
70199;SDS011;57587;55.688;37.600;2023-02-19T07:39:30;11.63;;;6.30;;
70199;SDS011;57587;55.688;37.600;2023-02-19T07:41:58;13.65;;;7.68;;
70199;SDS011;57587;55.688;37.600;2023-02-19T07:44:36;12.65;;;6.35;;
70199;SDS011;57587;55.688;37.600;2023-02-19T07:47:16;16.93;;;7.27;;
70199;SDS011;57587;55.688;37.600;2023-02-19T07:49:46;15.65;;;7.95;;
70199;SDS011;57587;55.688;37.600;2023-02-19T07:52:40;16.52;;;8.43;;
70199;SDS011;57587;55.688;37.600;2023-02-19T07:55:16;15.20;;;7.50;;
70199;SDS011;57587;55.688;37.600;2023-02-19T07:57:52;16.05;;;7.10;;
70199;SDS011;57587;55.688;37.600;2023-02-19T08:00:49;11.60;;;6.73;;
70199;SDS011;57587;55.688;37.600;2023-02-19T08:03:47;12.93;;;6.68;;
70199;SDS011;57587;55.688;37.600;2023-02-19T08:06:56;13.63;;;7.05;;
70199;SDS011;57587;55.688;37.600;2023-02-19T08:10:01;13.55;;;6.43;;
70199;SDS011;57587;55.688;37.600;2023-02-19T08:13:18;9.60;;;6.55;;
70199;SDS011;57587;55.688;37.600;2023-02-19T08:16:22;9.97;;;5.67;;
70199;SDS011;57587;55.688;37.600;2023-02-19T08:19:37;12.13;;;7.53;;
70199;SDS011;57587;55.688;37.600;2023-02-19T08:31:41;12.35;;;6.88;;
70199;SDS011;57587;55.688;37.600;2023-02-19T08:35:06;10.97;;;6.90;;
70199;SDS011;57587;55.688;37.600;2023-02-19T08:38:16;15.30;;;7.68;;
70199;SDS011;57587;55.688;37.600;2023-02-19T08:41:43;14.02;;;7.63;;
70199;SDS011;57587;55.688;37.600;2023-02-19T08:44:31;12.98;;;7.13;;
70199;SDS011;57587;55.688;37.600;2023-02-19T08:48:07;10.90;;;6.63;;
70199;SDS011;57587;55.688;37.600;2023-02-19T08:51:08;16.83;;;7.37;;
70199;SDS011;57587;55.688;37.600;2023-02-19T08:59:12;11.90;;;6.50;;
70199;SDS011;57587;55.688;37.600;2023-02-19T09:02:19;14.88;;;7.50;;
70199;SDS011;57587;55.688;37.600;2023-02-19T09:06:30;13.25;;;8.20;;
70199;SDS011;57587;55.688;37.600;2023-02-19T09:09:29;11.87;;;6.50;;
70199;SDS011;57587;55.688;37.600;2023-02-19T09:12:42;13.23;;;7.03;;
70199;SDS011;57587;55.688;37.600;2023-02-19T09:15:39;17.15;;;7.65;;
70199;SDS011;57587;55.688;37.600;2023-02-19T09:18:50;15.38;;;8.05;;
70199;SDS011;57587;55.688;37.600;2023-02-19T09:21:40;12.63;;;6.45;;
70199;SDS011;57587;55.688;37.600;2023-02-19T09:25:02;11.63;;;6.10;;
70199;SDS011;57587;55.688;37.600;2023-02-19T09:28:28;16.35;;;9.50;;
70199;SDS011;57587;55.688;37.600;2023-02-19T09:31:46;13.90;;;7.20;;
70199;SDS011;57587;55.688;37.600;2023-02-19T09:34:38;12.88;;;7.13;;
70199;SDS011;57587;55.688;37.600;2023-02-19T09:38:01;16.92;;;7.88;;
70199;SDS011;57587;55.688;37.600;2023-02-19T09:41:28;15.20;;;7.47;;
70199;SDS011;57587;55.688;37.600;2023-02-19T09:48:15;15.77;;;9.13;;
70199;SDS011;57587;55.688;37.600;2023-02-19T09:50:43;16.30;;;7.97;;
70199;SDS011;57587;55.688;37.600;2023-02-19T09:53:14;15.48;;;7.82;;
70199;SDS011;57587;55.688;37.600;2023-02-19T09:55:46;14.03;;;7.73;;
70199;SDS011;57587;55.688;37.600;2023-02-19T10:01:00;15.23;;;8.70;;
70199;SDS011;57587;55.688;37.600;2023-02-19T10:06:01;16.85;;;8.75;;
70199;SDS011;57587;55.688;37.600;2023-02-19T10:08:51;18.57;;;9.53;;
70199;SDS011;57587;55.688;37.600;2023-02-19T10:11:21;10.00;;;6.18;;
70199;SDS011;57587;55.688;37.600;2023-02-19T10:14:02;17.98;;;7.68;;
70199;SDS011;57587;55.688;37.600;2023-02-19T10:16:35;15.02;;;7.32;;
70199;SDS011;57587;55.688;37.600;2023-02-19T10:19:10;14.45;;;7.88;;
70199;SDS011;57587;55.688;37.600;2023-02-19T10:21:39;17.33;;;8.23;;
70199;SDS011;57587;55.688;37.600;2023-02-19T10:24:07;14.02;;;7.72;;
70199;SDS011;57587;55.688;37.600;2023-02-19T10:26:46;16.52;;;9.20;;
70199;SDS011;57587;55.688;37.600;2023-02-19T10:29:13;16.67;;;9.43;;
70199;SDS011;57587;55.688;37.600;2023-02-19T10:31:40;13.95;;;8.23;;
70199;SDS011;57587;55.688;37.600;2023-02-19T10:34:16;16.00;;;8.33;;
70199;SDS011;57587;55.688;37.600;2023-02-19T10:36:46;17.30;;;8.85;;
70199;SDS011;57587;55.688;37.600;2023-02-19T10:42:05;12.77;;;7.60;;
70199;SDS011;57587;55.688;37.600;2023-02-19T10:44:41;11.25;;;6.50;;
70199;SDS011;57587;55.688;37.600;2023-02-19T10:47:14;12.90;;;7.03;;
70199;SDS011;57587;55.688;37.600;2023-02-19T10:49:44;20.95;;;8.95;;
70199;SDS011;57587;55.688;37.600;2023-02-19T10:54:44;16.13;;;7.13;;
70199;SDS011;57587;55.688;37.600;2023-02-19T10:59:51;19.13;;;10.30;;
70199;SDS011;57587;55.688;37.600;2023-02-19T11:02:23;17.58;;;7.93;;
70199;SDS011;57587;55.688;37.600;2023-02-19T11:07:46;13.05;;;8.23;;
70199;SDS011;57587;55.688;37.600;2023-02-19T11:10:31;20.63;;;9.00;;
70199;SDS011;57587;55.688;37.600;2023-02-19T11:13:05;15.73;;;8.90;;
70199;SDS011;57587;55.688;37.600;2023-02-19T11:15:34;11.75;;;6.80;;
70199;SDS011;57587;55.688;37.600;2023-02-19T11:18:04;14.85;;;8.00;;
70199;SDS011;57587;55.688;37.600;2023-02-19T11:20:51;17.63;;;9.30;;
70199;SDS011;57587;55.688;37.600;2023-02-19T11:26:00;13.37;;;7.37;;
70199;SDS011;57587;55.688;37.600;2023-02-19T11:28:36;13.63;;;8.32;;
70199;SDS011;57587;55.688;37.600;2023-02-19T11:31:27;13.15;;;6.90;;
70199;SDS011;57587;55.688;37.600;2023-02-19T11:33:58;12.30;;;7.07;;
70199;SDS011;57587;55.688;37.600;2023-02-19T11:36:28;16.27;;;8.75;;
70199;SDS011;57587;55.688;37.600;2023-02-19T11:55:05;14.50;;;7.68;;
70199;SDS011;57587;55.688;37.600;2023-02-19T11:57:42;16.33;;;9.68;;
70199;SDS011;57587;55.688;37.600;2023-02-19T12:00:24;15.38;;;7.95;;
70199;SDS011;57587;55.688;37.600;2023-02-19T12:11:07;16.77;;;9.68;;
70199;SDS011;57587;55.688;37.600;2023-02-19T12:45:30;13.80;;;8.15;;
70199;SDS011;57587;55.688;37.600;2023-02-19T12:48:39;19.03;;;8.63;;
70199;SDS011;57587;55.688;37.600;2023-02-19T12:51:16;20.38;;;8.95;;
70199;SDS011;57587;55.688;37.600;2023-02-19T12:56:49;18.80;;;8.77;;
70199;SDS011;57587;55.688;37.600;2023-02-19T13:02:09;19.80;;;9.07;;
70199;SDS011;57587;55.688;37.600;2023-02-19T13:12:48;15.38;;;8.68;;
70199;SDS011;57587;55.688;37.600;2023-02-19T13:15:29;21.00;;;9.00;;
70199;SDS011;57587;55.688;37.600;2023-02-19T13:18:04;17.27;;;9.55;;
70199;SDS011;57587;55.688;37.600;2023-02-19T13:20:42;21.13;;;9.50;;
70199;SDS011;57587;55.688;37.600;2023-02-19T13:23:13;22.63;;;9.50;;
70199;SDS011;57587;55.688;37.600;2023-02-19T13:36:42;23.08;;;10.80;;
70199;SDS011;57587;55.688;37.600;2023-02-19T13:39:12;14.95;;;8.45;;
70199;SDS011;57587;55.688;37.600;2023-02-19T13:41:56;18.57;;;9.30;;
70199;SDS011;57587;55.688;37.600;2023-02-19T13:44:25;20.80;;;10.10;;
70199;SDS011;57587;55.688;37.600;2023-02-19T13:46:58;17.20;;;8.95;;
70199;SDS011;57587;55.688;37.600;2023-02-19T13:52:36;19.33;;;8.98;;
70199;SDS011;57587;55.688;37.600;2023-02-19T14:01:08;17.55;;;8.88;;
70199;SDS011;57587;55.688;37.600;2023-02-19T14:03:45;18.55;;;9.00;;
70199;SDS011;57587;55.688;37.600;2023-02-19T14:06:19;19.27;;;9.05;;
70199;SDS011;57587;55.688;37.600;2023-02-19T14:08:56;15.90;;;8.00;;
70199;SDS011;57587;55.688;37.600;2023-02-19T14:28:01;16.63;;;8.18;;
70199;SDS011;57587;55.688;37.600;2023-02-19T14:33:28;20.10;;;10.43;;
70199;SDS011;57587;55.688;37.600;2023-02-19T14:38:49;21.80;;;9.60;;
70199;SDS011;57587;55.688;37.600;2023-02-19T14:41:20;16.13;;;8.40;;
70199;SDS011;57587;55.688;37.600;2023-02-19T14:43:53;22.63;;;11.13;;
70199;SDS011;57587;55.688;37.600;2023-02-19T14:46:31;20.63;;;9.95;;
70199;SDS011;57587;55.688;37.600;2023-02-19T14:49:07;16.37;;;8.07;;
70199;SDS011;57587;55.688;37.600;2023-02-19T14:52:39;21.40;;;9.70;;
70199;SDS011;57587;55.688;37.600;2023-02-19T14:54:57;14.80;;;7.20;;
70199;SDS011;57587;55.688;37.600;2023-02-19T14:57:42;21.30;;;9.57;;
70199;SDS011;57587;55.688;37.600;2023-02-19T15:00:25;20.73;;;9.27;;
70199;SDS011;57587;55.688;37.600;2023-02-19T15:03:03;12.13;;;6.83;;
70199;SDS011;57587;55.688;37.600;2023-02-19T15:06:04;19.65;;;9.18;;
70199;SDS011;57587;55.688;37.600;2023-02-19T15:08:35;22.73;;;9.55;;
70199;SDS011;57587;55.688;37.600;2023-02-19T15:11:10;19.67;;;9.27;;
70199;SDS011;57587;55.688;37.600;2023-02-19T15:13:45;18.65;;;8.40;;
70199;SDS011;57587;55.688;37.600;2023-02-19T15:16:17;22.47;;;10.03;;
70199;SDS011;57587;55.688;37.600;2023-02-19T15:18:47;21.88;;;9.98;;
70199;SDS011;57587;55.688;37.600;2023-02-19T15:21:23;21.58;;;9.68;;
70199;SDS011;57587;55.688;37.600;2023-02-19T15:23:54;18.80;;;9.98;;
70199;SDS011;57587;55.688;37.600;2023-02-19T15:26:30;17.88;;;8.88;;
70199;SDS011;57587;55.688;37.600;2023-02-19T15:29:23;21.23;;;9.87;;
70199;SDS011;57587;55.688;37.600;2023-02-19T15:31:54;16.75;;;9.13;;
70199;SDS011;57587;55.688;37.600;2023-02-19T15:34:29;19.98;;;10.57;;
70199;SDS011;57587;55.688;37.600;2023-02-19T15:37:01;17.95;;;8.57;;
70199;SDS011;57587;55.688;37.600;2023-02-19T15:39:37;18.52;;;9.35;;
70199;SDS011;57587;55.688;37.600;2023-02-19T15:42:09;19.83;;;9.57;;
70199;SDS011;57587;55.688;37.600;2023-02-19T15:50:04;19.10;;;8.15;;
70199;SDS011;57587;55.688;37.600;2023-02-19T16:00:57;20.67;;;10.02;;
70199;SDS011;57587;55.688;37.600;2023-02-19T16:03:32;15.90;;;7.55;;
70199;SDS011;57587;55.688;37.600;2023-02-19T16:06:04;23.17;;;10.50;;
70199;SDS011;57587;55.688;37.600;2023-02-19T16:08:45;24.13;;;11.47;;
70199;SDS011;57587;55.688;37.600;2023-02-19T16:16:44;15.88;;;8.07;;
70199;SDS011;57587;55.688;37.600;2023-02-19T16:19:24;19.92;;;9.52;;
70199;SDS011;57587;55.688;37.600;2023-02-19T16:21:58;22.27;;;9.70;;
70199;SDS011;57587;55.688;37.600;2023-02-19T16:24:29;22.45;;;10.73;;
70199;SDS011;57587;55.688;37.600;2023-02-19T16:27:00;20.35;;;11.25;;
70199;SDS011;57587;55.688;37.600;2023-02-19T16:29:34;22.05;;;9.93;;
70199;SDS011;57587;55.688;37.600;2023-02-19T16:32:04;26.50;;;11.10;;
70199;SDS011;57587;55.688;37.600;2023-02-19T16:34:38;20.47;;;10.73;;
70199;SDS011;57587;55.688;37.600;2023-02-19T16:37:54;20.83;;;9.50;;
70199;SDS011;57587;55.688;37.600;2023-02-19T16:45:15;25.08;;;11.35;;
70199;SDS011;57587;55.688;37.600;2023-02-19T16:47:43;20.33;;;9.97;;
70199;SDS011;57587;55.688;37.600;2023-02-19T16:50:14;22.73;;;10.98;;
70199;SDS011;57587;55.688;37.600;2023-02-19T16:52:53;24.33;;;11.57;;
70199;SDS011;57587;55.688;37.600;2023-02-19T16:55:22;22.25;;;10.77;;
70199;SDS011;57587;55.688;37.600;2023-02-19T16:57:50;22.75;;;10.85;;
70199;SDS011;57587;55.688;37.600;2023-02-19T17:00:18;23.47;;;11.13;;
70199;SDS011;57587;55.688;37.600;2023-02-19T17:02:51;24.05;;;10.77;;
70199;SDS011;57587;55.688;37.600;2023-02-19T17:05:21;21.33;;;11.30;;
70199;SDS011;57587;55.688;37.600;2023-02-19T17:07:51;21.13;;;10.80;;
70199;SDS011;57587;55.688;37.600;2023-02-19T17:10:19;24.48;;;11.15;;
70199;SDS011;57587;55.688;37.600;2023-02-19T17:12:50;19.60;;;9.47;;
70199;SDS011;57587;55.688;37.600;2023-02-19T17:15:19;20.10;;;10.68;;
70199;SDS011;57587;55.688;37.600;2023-02-19T17:17:47;23.48;;;11.52;;
70199;SDS011;57587;55.688;37.600;2023-02-19T17:22:49;21.15;;;11.27;;
70199;SDS011;57587;55.688;37.600;2023-02-19T17:25:17;19.73;;;9.67;;
70199;SDS011;57587;55.688;37.600;2023-02-19T17:27:44;20.75;;;9.63;;
70199;SDS011;57587;55.688;37.600;2023-02-19T17:30:19;24.00;;;10.98;;
70199;SDS011;57587;55.688;37.600;2023-02-19T17:32:57;23.40;;;10.90;;
70199;SDS011;57587;55.688;37.600;2023-02-19T17:35:26;22.48;;;10.75;;
70199;SDS011;57587;55.688;37.600;2023-02-19T17:37:53;19.10;;;10.47;;
70199;SDS011;57587;55.688;37.600;2023-02-19T17:40:24;23.00;;;10.85;;
70199;SDS011;57587;55.688;37.600;2023-02-19T17:42:59;21.98;;;11.27;;
70199;SDS011;57587;55.688;37.600;2023-02-19T17:45:27;25.15;;;11.43;;
70199;SDS011;57587;55.688;37.600;2023-02-19T17:47:55;26.70;;;12.18;;
70199;SDS011;57587;55.688;37.600;2023-02-19T17:50:23;26.80;;;11.80;;
70199;SDS011;57587;55.688;37.600;2023-02-19T17:52:53;21.75;;;10.77;;
70199;SDS011;57587;55.688;37.600;2023-02-19T17:55:21;26.00;;;11.85;;
70199;SDS011;57587;55.688;37.600;2023-02-19T17:57:49;28.23;;;12.40;;
70199;SDS011;57587;55.688;37.600;2023-02-19T18:00:19;26.90;;;13.35;;
70199;SDS011;57587;55.688;37.600;2023-02-19T18:02:54;24.10;;;10.90;;
70199;SDS011;57587;55.688;37.600;2023-02-19T18:05:22;25.45;;;10.63;;
70199;SDS011;57587;55.688;37.600;2023-02-19T18:07:50;24.25;;;11.45;;
70199;SDS011;57587;55.688;37.600;2023-02-19T18:10:18;26.05;;;12.05;;
70199;SDS011;57587;55.688;37.600;2023-02-19T18:12:46;25.48;;;11.43;;
70199;SDS011;57587;55.688;37.600;2023-02-19T18:15:18;24.80;;;10.43;;
70199;SDS011;57587;55.688;37.600;2023-02-19T18:17:47;25.70;;;12.05;;
70199;SDS011;57587;55.688;37.600;2023-02-19T18:20:15;24.85;;;12.60;;
70199;SDS011;57587;55.688;37.600;2023-02-19T18:22:43;20.67;;;10.13;;
70199;SDS011;57587;55.688;37.600;2023-02-19T18:25:10;25.85;;;12.10;;
70199;SDS011;57587;55.688;37.600;2023-02-19T18:27:38;23.63;;;11.07;;
70199;SDS011;57587;55.688;37.600;2023-02-19T18:30:06;25.02;;;11.95;;
70199;SDS011;57587;55.688;37.600;2023-02-19T18:32:34;26.10;;;11.55;;
70199;SDS011;57587;55.688;37.600;2023-02-19T18:35:02;27.10;;;12.82;;
70199;SDS011;57587;55.688;37.600;2023-02-19T18:37:30;23.67;;;11.10;;
70199;SDS011;57587;55.688;37.600;2023-02-19T18:39:59;25.50;;;12.43;;
70199;SDS011;57587;55.688;37.600;2023-02-19T18:42:29;33.72;;;13.02;;
70199;SDS011;57587;55.688;37.600;2023-02-19T18:44:56;26.20;;;12.10;;
70199;SDS011;57587;55.688;37.600;2023-02-19T18:47:23;23.95;;;10.93;;
70199;SDS011;57587;55.688;37.600;2023-02-19T18:49:55;24.42;;;11.20;;